sensor_id;sensor_type;location;lat;lon;timestamp;pressure;altitude;pressure_sealevel;temperature;humidity
64460;BME280;50828;53.756;21.140;2022-10-17T00:00:14;100648.61;;;13.77;72.23
64460;BME280;50828;53.756;21.140;2022-10-17T00:05:21;100653.10;;;13.71;72.31
64460;BME280;50828;53.756;21.140;2022-10-17T00:10:30;100652.44;;;13.66;72.42
64460;BME280;50828;53.756;21.140;2022-10-17T00:15:37;100652.22;;;13.59;72.45
64460;BME280;50828;53.756;21.140;2022-10-17T00:20:49;100649.04;;;13.55;72.37
64460;BME280;50828;53.756;21.140;2022-10-17T00:26:03;100654.19;;;13.51;71.78
64460;BME280;50828;53.756;21.140;2022-10-17T00:31:11;100659.66;;;13.43;71.31
64460;BME280;50828;53.756;21.140;2022-10-17T00:36:20;100668.08;;;13.36;70.61
64460;BME280;50828;53.756;21.140;2022-10-17T00:41:32;100664.92;;;13.26;70.06
64460;BME280;50828;53.756;21.140;2022-10-17T00:46:42;100651.30;;;13.14;69.63
64460;BME280;50828;53.756;21.140;2022-10-17T00:51:52;100649.92;;;13.05;69.78
64460;BME280;50828;53.756;21.140;2022-10-17T00:57:00;100647.39;;;12.93;68.94
64460;BME280;50828;53.756;21.140;2022-10-17T01:02:10;100652.28;;;12.82;69.25
64460;BME280;50828;53.756;21.140;2022-10-17T01:07:19;100658.39;;;12.71;69.17
64460;BME280;50828;53.756;21.140;2022-10-17T01:12:31;100662.20;;;12.59;69.06
64460;BME280;50828;53.756;21.140;2022-10-17T01:17:54;100668.98;;;12.48;68.37
64460;BME280;50828;53.756;21.140;2022-10-17T01:23:23;100659.83;;;12.34;68.12
64460;BME280;50828;53.756;21.140;2022-10-17T01:28:59;100655.42;;;12.20;67.56
64460;BME280;50828;53.756;21.140;2022-10-17T01:34:15;100658.84;;;12.04;67.06
64460;BME280;50828;53.756;21.140;2022-10-17T01:39:30;100663.32;;;11.87;66.75
64460;BME280;50828;53.756;21.140;2022-10-17T01:44:50;100653.65;;;11.72;66.65
64460;BME280;50828;53.756;21.140;2022-10-17T01:50:05;100658.12;;;11.56;66.25
64460;BME280;50828;53.756;21.140;2022-10-17T01:55:17;100664.30;;;11.40;66.65
64460;BME280;50828;53.756;21.140;2022-10-17T02:00:28;100666.18;;;11.27;66.54
64460;BME280;50828;53.756;21.140;2022-10-17T02:05:38;100669.79;;;11.13;66.74
64460;BME280;50828;53.756;21.140;2022-10-17T02:10:50;100687.31;;;11.00;67.46
64460;BME280;50828;53.756;21.140;2022-10-17T02:16:14;100696.22;;;10.93;67.51
64460;BME280;50828;53.756;21.140;2022-10-17T02:21:32;100691.39;;;10.83;67.67
64460;BME280;50828;53.756;21.140;2022-10-17T02:26:46;100698.75;;;10.74;67.38
64460;BME280;50828;53.756;21.140;2022-10-17T02:31:59;100715.80;;;10.64;67.52
64460;BME280;50828;53.756;21.140;2022-10-17T02:37:12;100730.85;;;10.55;67.65
64460;BME280;50828;53.756;21.140;2022-10-17T02:42:22;100719.30;;;10.47;67.99
64460;BME280;50828;53.756;21.140;2022-10-17T02:47:34;100717.05;;;10.39;67.95
64460;BME280;50828;53.756;21.140;2022-10-17T02:52:47;100740.16;;;10.31;68.60
64460;BME280;50828;53.756;21.140;2022-10-17T02:58:01;100747.05;;;10.24;68.55
64460;BME280;50828;53.756;21.140;2022-10-17T03:03:23;100751.92;;;10.20;68.77
64460;BME280;50828;53.756;21.140;2022-10-17T03:08:30;100761.39;;;10.15;69.08
64460;BME280;50828;53.756;21.140;2022-10-17T03:13:38;100759.95;;;10.09;69.25
64460;BME280;50828;53.756;21.140;2022-10-17T03:18:47;100768.90;;;10.04;68.93
64460;BME280;50828;53.756;21.140;2022-10-17T03:23:55;100768.92;;;9.97;68.89
64460;BME280;50828;53.756;21.140;2022-10-17T03:29:02;100775.86;;;9.94;68.92
64460;BME280;50828;53.756;21.140;2022-10-17T03:34:10;100792.73;;;9.88;69.11
64460;BME280;50828;53.756;21.140;2022-10-17T03:39:18;100805.54;;;9.83;68.97
64460;BME280;50828;53.756;21.140;2022-10-17T03:44:25;100801.66;;;9.76;68.92
64460;BME280;50828;53.756;21.140;2022-10-17T03:49:33;100805.50;;;9.70;68.95
64460;BME280;50828;53.756;21.140;2022-10-17T03:54:41;100793.55;;;9.64;68.73
64460;BME280;50828;53.756;21.140;2022-10-17T03:59:50;100802.11;;;9.58;68.88
64460;BME280;50828;53.756;21.140;2022-10-17T04:04:59;100804.92;;;9.51;68.39
64460;BME280;50828;53.756;21.140;2022-10-17T04:10:08;100811.75;;;9.45;68.85
64460;BME280;50828;53.756;21.140;2022-10-17T04:15:17;100812.42;;;9.40;68.64
64460;BME280;50828;53.756;21.140;2022-10-17T04:20:25;100810.13;;;9.32;68.45
64460;BME280;50828;53.756;21.140;2022-10-17T04:25:34;100816.44;;;9.26;68.47
64460;BME280;50828;53.756;21.140;2022-10-17T04:30:42;100829.21;;;9.21;68.64
64460;BME280;50828;53.756;21.140;2022-10-17T04:35:58;100838.83;;;9.15;68.76
64460;BME280;50828;53.756;21.140;2022-10-17T04:41:09;100845.98;;;9.09;68.73
64460;BME280;50828;53.756;21.140;2022-10-17T04:46:17;100840.87;;;9.02;68.84
64460;BME280;50828;53.756;21.140;2022-10-17T04:51:25;100842.41;;;8.96;68.75
64460;BME280;50828;53.756;21.140;2022-10-17T04:56:49;100849.23;;;8.90;69.07
64460;BME280;50828;53.756;21.140;2022-10-17T05:01:57;100852.84;;;8.86;68.81
64460;BME280;50828;53.756;21.140;2022-10-17T05:07:08;100845.58;;;8.80;68.84
64460;BME280;50828;53.756;21.140;2022-10-17T05:12:32;100844.97;;;8.75;68.91
64460;BME280;50828;53.756;21.140;2022-10-17T05:17:40;100855.42;;;8.70;68.94
64460;BME280;50828;53.756;21.140;2022-10-17T05:22:49;100856.96;;;8.64;69.05
64460;BME280;50828;53.756;21.140;2022-10-17T05:27:59;100861.95;;;8.60;69.25
64460;BME280;50828;53.756;21.140;2022-10-17T05:33:07;100858.17;;;8.56;69.23
64460;BME280;50828;53.756;21.140;2022-10-17T05:38:16;100859.67;;;8.52;69.35
64460;BME280;50828;53.756;21.140;2022-10-17T05:43:25;100865.01;;;8.49;69.07
64460;BME280;50828;53.756;21.140;2022-10-17T05:48:33;100876.14;;;8.45;69.74
64460;BME280;50828;53.756;21.140;2022-10-17T05:53:42;100890.74;;;8.42;69.56
64460;BME280;50828;53.756;21.140;2022-10-17T05:58:54;100897.44;;;8.40;69.71
64460;BME280;50828;53.756;21.140;2022-10-17T06:04:26;100901.28;;;8.40;70.14
64460;BME280;50828;53.756;21.140;2022-10-17T06:09:35;100911.78;;;8.43;70.68
64460;BME280;50828;53.756;21.140;2022-10-17T06:14:43;100900.98;;;8.39;70.82
64460;BME280;50828;53.756;21.140;2022-10-17T06:19:52;100915.93;;;8.57;70.82
64460;BME280;50828;53.756;21.140;2022-10-17T06:25:01;100915.73;;;8.67;71.15
64460;BME280;50828;53.756;21.140;2022-10-17T06:30:10;100926.09;;;8.77;71.52
64460;BME280;50828;53.756;21.140;2022-10-17T06:35:19;100929.05;;;8.86;71.61
64460;BME280;50828;53.756;21.140;2022-10-17T06:40:27;100928.39;;;9.01;71.48
64460;BME280;50828;53.756;21.140;2022-10-17T06:45:36;100929.26;;;9.19;71.54
64460;BME280;50828;53.756;21.140;2022-10-17T06:51:06;100944.48;;;9.38;71.62
64460;BME280;50828;53.756;21.140;2022-10-17T06:56:25;100946.86;;;9.58;71.55
64460;BME280;50828;53.756;21.140;2022-10-17T07:02:05;100949.21;;;9.78;71.88
64460;BME280;50828;53.756;21.140;2022-10-17T07:07:14;100953.02;;;9.95;71.65
64460;BME280;50828;53.756;21.140;2022-10-17T07:12:23;100958.92;;;10.13;71.93
64460;BME280;50828;53.756;21.140;2022-10-17T07:17:31;100958.58;;;10.34;72.72
64460;BME280;50828;53.756;21.140;2022-10-17T07:22:40;100959.30;;;10.54;73.00
64460;BME280;50828;53.756;21.140;2022-10-17T07:27:48;100963.84;;;10.75;74.03
64460;BME280;50828;53.756;21.140;2022-10-17T07:32:58;100983.74;;;11.01;73.52
64460;BME280;50828;53.756;21.140;2022-10-17T07:38:07;100986.59;;;11.31;73.26
64460;BME280;50828;53.756;21.140;2022-10-17T07:43:15;101003.41;;;11.59;73.44
64460;BME280;50828;53.756;21.140;2022-10-17T07:48:23;101006.02;;;11.83;73.28
64460;BME280;50828;53.756;21.140;2022-10-17T07:53:32;101004.77;;;12.06;73.38
64460;BME280;50828;53.756;21.140;2022-10-17T07:58:41;101005.14;;;12.28;73.55
64460;BME280;50828;53.756;21.140;2022-10-17T08:03:49;101001.25;;;12.49;73.65
64460;BME280;50828;53.756;21.140;2022-10-17T08:08:57;100984.20;;;12.62;73.46
64460;BME280;50828;53.756;21.140;2022-10-17T08:14:07;100996.41;;;12.87;73.30
64460;BME280;50828;53.756;21.140;2022-10-17T08:19:14;100989.44;;;13.04;73.30
64460;BME280;50828;53.756;21.140;2022-10-17T08:24:22;100995.17;;;13.21;73.60
64460;BME280;50828;53.756;21.140;2022-10-17T08:29:31;101002.91;;;13.42;73.84
64460;BME280;50828;53.756;21.140;2022-10-17T08:34:39;101003.98;;;13.65;73.87
64460;BME280;50828;53.756;21.140;2022-10-17T08:39:47;100995.74;;;13.85;73.90
64460;BME280;50828;53.756;21.140;2022-10-17T08:44:59;100997.71;;;14.12;74.14
64460;BME280;50828;53.756;21.140;2022-10-17T08:50:17;100986.70;;;14.38;74.43
64460;BME280;50828;53.756;21.140;2022-10-17T08:55:35;100989.18;;;14.63;74.23
64460;BME280;50828;53.756;21.140;2022-10-17T09:00:55;101002.41;;;14.90;73.86
64460;BME280;50828;53.756;21.140;2022-10-17T09:06:16;101013.21;;;15.18;73.70
64460;BME280;50828;53.756;21.140;2022-10-17T09:11:40;101010.07;;;15.44;73.37
64460;BME280;50828;53.756;21.140;2022-10-17T09:17:02;101001.74;;;15.67;73.25
64460;BME280;50828;53.756;21.140;2022-10-17T09:22:14;100997.45;;;15.87;72.78
64460;BME280;50828;53.756;21.140;2022-10-17T09:27:29;100984.73;;;16.07;72.35
64460;BME280;50828;53.756;21.140;2022-10-17T09:32:39;100983.89;;;16.28;72.02
64460;BME280;50828;53.756;21.140;2022-10-17T09:37:49;100985.18;;;16.48;71.84
64460;BME280;50828;53.756;21.140;2022-10-17T09:42:58;100986.80;;;16.65;71.52
64460;BME280;50828;53.756;21.140;2022-10-17T09:48:13;100992.25;;;16.80;71.00
64460;BME280;50828;53.756;21.140;2022-10-17T09:53:28;100992.26;;;16.97;70.15
64460;BME280;50828;53.756;21.140;2022-10-17T09:58:44;100984.74;;;17.12;69.95
64460;BME280;50828;53.756;21.140;2022-10-17T10:04:10;100984.00;;;17.25;69.41
64460;BME280;50828;53.756;21.140;2022-10-17T10:09:23;100991.19;;;17.40;68.46
64460;BME280;50828;53.756;21.140;2022-10-17T10:14:34;100989.46;;;17.55;67.75
64460;BME280;50828;53.756;21.140;2022-10-17T10:19:50;100983.67;;;17.70;66.54
64460;BME280;50828;53.756;21.140;2022-10-17T10:25:14;100975.41;;;17.84;66.06
64460;BME280;50828;53.756;21.140;2022-10-17T10:30:27;100974.52;;;17.94;65.90
64460;BME280;50828;53.756;21.140;2022-10-17T10:35:54;100978.86;;;18.02;65.27
64460;BME280;50828;53.756;21.140;2022-10-17T10:41:06;100975.73;;;18.13;64.08
64460;BME280;50828;53.756;21.140;2022-10-17T10:46:20;100974.48;;;18.26;63.64
64460;BME280;50828;53.756;21.140;2022-10-17T10:51:32;100967.05;;;18.37;63.31
64460;BME280;50828;53.756;21.140;2022-10-17T10:56:44;100966.82;;;18.46;63.01
64460;BME280;50828;53.756;21.140;2022-10-17T11:02:00;100965.55;;;18.56;62.61
64460;BME280;50828;53.756;21.140;2022-10-17T11:07:12;100961.45;;;18.65;62.98
64460;BME280;50828;53.756;21.140;2022-10-17T11:12:23;100949.55;;;18.70;63.12
64460;BME280;50828;53.756;21.140;2022-10-17T11:17:37;100940.42;;;18.76;62.89
64460;BME280;50828;53.756;21.140;2022-10-17T11:22:48;100933.06;;;18.83;62.31
64460;BME280;50828;53.756;21.140;2022-10-17T11:27:58;100932.83;;;18.90;62.31
64460;BME280;50828;53.756;21.140;2022-10-17T11:33:13;100926.30;;;18.95;62.50
64460;BME280;50828;53.756;21.140;2022-10-17T11:38:29;100924.95;;;18.99;62.72
64460;BME280;50828;53.756;21.140;2022-10-17T11:43:47;100918.64;;;19.03;62.74
64460;BME280;50828;53.756;21.140;2022-10-17T11:49:09;100916.19;;;19.08;62.76
64460;BME280;50828;53.756;21.140;2022-10-17T11:54:29;100906.05;;;19.16;62.33
64460;BME280;50828;53.756;21.140;2022-10-17T11:59:57;100908.12;;;19.25;61.32
64460;BME280;50828;53.756;21.140;2022-10-17T12:05:19;100902.73;;;19.34;61.18
64460;BME280;50828;53.756;21.140;2022-10-17T12:10:36;100887.49;;;19.40;60.80
64460;BME280;50828;53.756;21.140;2022-10-17T12:15:46;100881.99;;;19.48;60.42
64460;BME280;50828;53.756;21.140;2022-10-17T12:20:58;100880.46;;;19.55;60.36
64460;BME280;50828;53.756;21.140;2022-10-17T12:26:08;100871.85;;;19.61;60.14
64460;BME280;50828;53.756;21.140;2022-10-17T12:31:24;100867.96;;;19.66;60.16
64460;BME280;50828;53.756;21.140;2022-10-17T12:36:40;100872.96;;;19.71;59.87
64460;BME280;50828;53.756;21.140;2022-10-17T12:41:57;100872.36;;;19.75;59.67
64460;BME280;50828;53.756;21.140;2022-10-17T12:47:37;100879.18;;;19.81;59.46
64460;BME280;50828;53.756;21.140;2022-10-17T12:53:03;100876.55;;;19.88;59.06
64460;BME280;50828;53.756;21.140;2022-10-17T12:58:14;100869.44;;;19.95;59.26
64460;BME280;50828;53.756;21.140;2022-10-17T13:03:25;100868.30;;;20.02;59.23
64460;BME280;50828;53.756;21.140;2022-10-17T13:08:36;100873.64;;;20.07;59.27
64460;BME280;50828;53.756;21.140;2022-10-17T13:13:46;100872.17;;;20.13;58.96
64460;BME280;50828;53.756;21.140;2022-10-17T13:18:55;100863.38;;;20.16;59.08
64460;BME280;50828;53.756;21.140;2022-10-17T13:24:21;100869.73;;;20.14;59.07
64460;BME280;50828;53.756;21.140;2022-10-17T13:29:29;100871.45;;;20.10;59.19
64460;BME280;50828;53.756;21.140;2022-10-17T13:34:38;100871.70;;;20.07;59.50
64460;BME280;50828;53.756;21.140;2022-10-17T13:39:47;100868.73;;;20.04;59.68
64460;BME280;50828;53.756;21.140;2022-10-17T13:45:18;100866.54;;;20.01;59.80
64460;BME280;50828;53.756;21.140;2022-10-17T13:50:34;100854.89;;;19.99;60.12
64460;BME280;50828;53.756;21.140;2022-10-17T13:55:56;100858.77;;;19.97;60.33
64460;BME280;50828;53.756;21.140;2022-10-17T14:01:26;100860.81;;;19.96;60.43
64460;BME280;50828;53.756;21.140;2022-10-17T14:06:35;100858.36;;;19.95;60.66
64460;BME280;50828;53.756;21.140;2022-10-17T14:12:01;100850.13;;;19.93;60.87
64460;BME280;50828;53.756;21.140;2022-10-17T14:17:16;100840.27;;;19.90;61.20
64460;BME280;50828;53.756;21.140;2022-10-17T14:22:32;100828.27;;;19.88;61.41
64460;BME280;50828;53.756;21.140;2022-10-17T14:27:54;100819.14;;;19.86;61.56
64460;BME280;50828;53.756;21.140;2022-10-17T14:33:12;100813.39;;;19.84;61.68
64460;BME280;50828;53.756;21.140;2022-10-17T14:38:21;100805.08;;;19.82;61.98
64460;BME280;50828;53.756;21.140;2022-10-17T14:43:30;100792.25;;;19.79;62.00
64460;BME280;50828;53.756;21.140;2022-10-17T14:48:39;100789.26;;;19.76;62.14
64460;BME280;50828;53.756;21.140;2022-10-17T14:54:02;100796.33;;;19.71;62.20
64460;BME280;50828;53.756;21.140;2022-10-17T14:59:10;100790.72;;;19.67;62.61
64460;BME280;50828;53.756;21.140;2022-10-17T15:04:43;100789.08;;;19.62;62.76
64460;BME280;50828;53.756;21.140;2022-10-17T15:09:52;100795.45;;;19.58;62.81
64460;BME280;50828;53.756;21.140;2022-10-17T15:14:59;100794.88;;;19.53;63.08
64460;BME280;50828;53.756;21.140;2022-10-17T15:20:13;100798.69;;;19.47;63.11
64460;BME280;50828;53.756;21.140;2022-10-17T15:25:22;100796.44;;;19.40;63.17
64460;BME280;50828;53.756;21.140;2022-10-17T15:30:34;100789.30;;;19.32;63.20
64460;BME280;50828;53.756;21.140;2022-10-17T15:35:43;100793.09;;;19.23;63.34
64460;BME280;50828;53.756;21.140;2022-10-17T15:40:51;100791.49;;;19.15;63.39
64460;BME280;50828;53.756;21.140;2022-10-17T15:46:00;100786.92;;;19.05;63.61
64460;BME280;50828;53.756;21.140;2022-10-17T15:51:09;100777.80;;;18.89;63.72
64460;BME280;50828;53.756;21.140;2022-10-17T15:56:21;100788.38;;;18.85;64.00
64460;BME280;50828;53.756;21.140;2022-10-17T16:01:31;100793.09;;;18.75;64.12
64460;BME280;50828;53.756;21.140;2022-10-17T16:06:41;100795.63;;;18.66;64.27
64460;BME280;50828;53.756;21.140;2022-10-17T16:11:49;100798.04;;;18.57;64.58
64460;BME280;50828;53.756;21.140;2022-10-17T16:16:57;100796.40;;;18.48;64.84
64460;BME280;50828;53.756;21.140;2022-10-17T16:22:08;100801.20;;;18.40;64.94
64460;BME280;50828;53.756;21.140;2022-10-17T16:27:18;100801.31;;;18.32;65.18
64460;BME280;50828;53.756;21.140;2022-10-17T16:32:27;100793.77;;;18.25;65.13
64460;BME280;50828;53.756;21.140;2022-10-17T16:37:35;100788.23;;;18.19;65.22
64460;BME280;50828;53.756;21.140;2022-10-17T16:42:44;100785.79;;;18.12;65.35
64460;BME280;50828;53.756;21.140;2022-10-17T16:47:52;100780.61;;;18.06;65.48
64460;BME280;50828;53.756;21.140;2022-10-17T16:53:01;100774.91;;;18.01;65.57
64460;BME280;50828;53.756;21.140;2022-10-17T16:58:09;100770.27;;;17.95;65.67
64460;BME280;50828;53.756;21.140;2022-10-17T17:03:17;100775.19;;;17.90;65.82
64460;BME280;50828;53.756;21.140;2022-10-17T17:08:26;100779.40;;;17.85;65.96
64460;BME280;50828;53.756;21.140;2022-10-17T17:13:34;100771.21;;;17.81;65.99
64460;BME280;50828;53.756;21.140;2022-10-17T17:18:43;100763.23;;;17.78;66.17
64460;BME280;50828;53.756;21.140;2022-10-17T17:23:51;100764.34;;;17.74;66.15
64460;BME280;50828;53.756;21.140;2022-10-17T17:29:00;100767.69;;;17.72;66.20
64460;BME280;50828;53.756;21.140;2022-10-17T17:34:08;100755.03;;;17.69;66.24
64460;BME280;50828;53.756;21.140;2022-10-17T17:39:22;100754.41;;;17.68;66.22
64460;BME280;50828;53.756;21.140;2022-10-17T17:44:30;100748.27;;;17.66;66.33
64460;BME280;50828;53.756;21.140;2022-10-17T17:49:38;100740.08;;;17.63;66.33
64460;BME280;50828;53.756;21.140;2022-10-17T17:54:47;100740.45;;;17.60;66.29
64460;BME280;50828;53.756;21.140;2022-10-17T17:59:56;100734.65;;;17.58;66.28
64460;BME280;50828;53.756;21.140;2022-10-17T18:05:05;100726.44;;;17.56;66.40
64460;BME280;50828;53.756;21.140;2022-10-17T18:10:14;100729.98;;;17.53;66.42
64460;BME280;50828;53.756;21.140;2022-10-17T18:15:22;100733.57;;;17.50;66.41
64460;BME280;50828;53.756;21.140;2022-10-17T18:20:30;100735.33;;;17.47;66.44
64460;BME280;50828;53.756;21.140;2022-10-17T18:25:39;100731.38;;;17.45;66.36
64460;BME280;50828;53.756;21.140;2022-10-17T18:30:47;100724.77;;;17.42;66.56
64460;BME280;50828;53.756;21.140;2022-10-17T18:35:55;100725.39;;;17.40;66.49
64460;BME280;50828;53.756;21.140;2022-10-17T18:41:08;100716.61;;;17.38;66.53
64460;BME280;50828;53.756;21.140;2022-10-17T18:46:18;100707.64;;;17.36;66.52
64460;BME280;50828;53.756;21.140;2022-10-17T18:51:27;100700.40;;;17.33;66.56
64460;BME280;50828;53.756;21.140;2022-10-17T18:56:35;100690.45;;;17.29;66.56
64460;BME280;50828;53.756;21.140;2022-10-17T19:01:43;100684.91;;;17.23;66.66
64460;BME280;50828;53.756;21.140;2022-10-17T19:06:51;100678.43;;;17.22;66.53
64460;BME280;50828;53.756;21.140;2022-10-17T19:12:00;100684.30;;;17.18;66.55
64460;BME280;50828;53.756;21.140;2022-10-17T19:17:08;100678.77;;;17.16;66.62
64460;BME280;50828;53.756;21.140;2022-10-17T19:22:16;100672.91;;;17.13;66.63
64460;BME280;50828;53.756;21.140;2022-10-17T19:27:25;100665.06;;;17.10;66.68
64460;BME280;50828;53.756;21.140;2022-10-17T19:32:33;100658.30;;;17.07;66.67
64460;BME280;50828;53.756;21.140;2022-10-17T19:37:41;100653.10;;;17.04;66.75
64460;BME280;50828;53.756;21.140;2022-10-17T19:42:49;100650.30;;;17.00;66.81
64460;BME280;50828;53.756;21.140;2022-10-17T19:47:57;100648.11;;;16.99;66.81
64460;BME280;50828;53.756;21.140;2022-10-17T19:53:05;100638.11;;;16.96;66.74
64460;BME280;50828;53.756;21.140;2022-10-17T19:58:13;100628.70;;;16.93;66.88
64460;BME280;50828;53.756;21.140;2022-10-17T20:03:22;100624.69;;;16.92;66.70
64460;BME280;50828;53.756;21.140;2022-10-17T20:08:29;100627.98;;;16.90;66.85
64460;BME280;50828;53.756;21.140;2022-10-17T20:13:38;100622.30;;;16.90;66.82
64460;BME280;50828;53.756;21.140;2022-10-17T20:18:46;100618.20;;;16.90;66.81
64460;BME280;50828;53.756;21.140;2022-10-17T20:23:54;100615.05;;;16.89;66.82
64460;BME280;50828;53.756;21.140;2022-10-17T20:29:03;100607.38;;;16.90;66.84
64460;BME280;50828;53.756;21.140;2022-10-17T20:34:15;100609.86;;;16.90;66.70
64460;BME280;50828;53.756;21.140;2022-10-17T20:39:23;100609.68;;;16.90;66.75
64460;BME280;50828;53.756;21.140;2022-10-17T20:44:32;100604.48;;;16.91;66.59
64460;BME280;50828;53.756;21.140;2022-10-17T20:49:40;100600.92;;;16.90;66.50
64460;BME280;50828;53.756;21.140;2022-10-17T20:54:48;100600.23;;;16.90;66.44
64460;BME280;50828;53.756;21.140;2022-10-17T20:59:56;100598.10;;;16.90;66.29
64460;BME280;50828;53.756;21.140;2022-10-17T21:05:05;100595.85;;;16.89;66.43
64460;BME280;50828;53.756;21.140;2022-10-17T21:10:13;100596.90;;;16.86;66.31
64460;BME280;50828;53.756;21.140;2022-10-17T21:15:41;100592.55;;;16.83;66.43
64460;BME280;50828;53.756;21.140;2022-10-17T21:20:49;100585.06;;;16.81;66.36
64460;BME280;50828;53.756;21.140;2022-10-17T21:26:01;100580.66;;;16.78;66.32
64460;BME280;50828;53.756;21.140;2022-10-17T21:31:14;100578.95;;;16.73;66.24
64460;BME280;50828;53.756;21.140;2022-10-17T21:36:23;100566.14;;;16.67;66.52
64460;BME280;50828;53.756;21.140;2022-10-17T21:41:32;100569.61;;;16.62;66.51
64460;BME280;50828;53.756;21.140;2022-10-17T21:46:40;100571.42;;;16.59;66.43
64460;BME280;50828;53.756;21.140;2022-10-17T21:51:49;100576.48;;;16.54;66.52
64460;BME280;50828;53.756;21.140;2022-10-17T21:56:57;100567.16;;;16.49;66.71
64460;BME280;50828;53.756;21.140;2022-10-17T22:02:05;100560.73;;;16.47;66.55
64460;BME280;50828;53.756;21.140;2022-10-17T22:07:14;100558.84;;;16.43;66.48
64460;BME280;50828;53.756;21.140;2022-10-17T22:12:22;100557.95;;;16.36;66.50
64460;BME280;50828;53.756;21.140;2022-10-17T22:17:29;100558.71;;;16.32;66.84
64460;BME280;50828;53.756;21.140;2022-10-17T22:22:38;100551.73;;;16.27;66.81
64460;BME280;50828;53.756;21.140;2022-10-17T22:27:46;100551.47;;;16.25;66.79
64460;BME280;50828;53.756;21.140;2022-10-17T22:32:53;100549.30;;;16.20;66.84
64460;BME280;50828;53.756;21.140;2022-10-17T22:38:01;100543.35;;;16.18;66.94
64460;BME280;50828;53.756;21.140;2022-10-17T22:43:09;100540.54;;;16.14;66.87
64460;BME280;50828;53.756;21.140;2022-10-17T22:48:17;100536.70;;;16.10;66.76
64460;BME280;50828;53.756;21.140;2022-10-17T22:53:25;100532.30;;;16.06;66.88
64460;BME280;50828;53.756;21.140;2022-10-17T22:58:35;100527.50;;;16.00;66.90
64460;BME280;50828;53.756;21.140;2022-10-17T23:03:44;100531.03;;;15.97;67.09
64460;BME280;50828;53.756;21.140;2022-10-17T23:08:52;100522.61;;;15.92;67.05
64460;BME280;50828;53.756;21.140;2022-10-17T23:14:01;100520.88;;;15.88;66.81
64460;BME280;50828;53.756;21.140;2022-10-17T23:19:09;100516.72;;;15.83;66.94
64460;BME280;50828;53.756;21.140;2022-10-17T23:24:17;100521.08;;;15.78;67.01
64460;BME280;50828;53.756;21.140;2022-10-17T23:29:29;100530.83;;;15.75;67.24
64460;BME280;50828;53.756;21.140;2022-10-17T23:34:37;100529.42;;;15.71;67.17
64460;BME280;50828;53.756;21.140;2022-10-17T23:39:45;100526.06;;;15.68;67.22
64460;BME280;50828;53.756;21.140;2022-10-17T23:44:53;100523.04;;;15.65;67.44
64460;BME280;50828;53.756;21.140;2022-10-17T23:50:01;100520.36;;;15.61;67.30
64460;BME280;50828;53.756;21.140;2022-10-17T23:55:11;100515.58;;;15.58;67.41
